Time;durP1;ratioP1;P1;durP2;ratioP2;P2;SDS_P1;SDS_P2;PMS_P1;PMS_P2;Temp;Humidity;BMP_temperature;BMP_pressure;BME280_temperature;BME280_humidity;BME280_pressure;Samples;Min_cycle;Max_cycle;Signal;HPM_P1;HPM_P2
2022/05/17 00:00:12;;;;;;;5.17;3.43;;;17.00;99.90;;;;;;5009691;28;20442;-84
2022/05/17 00:02:40;;;;;;;4.10;3.70;;;16.90;99.90;;;;;;5010647;28;20447;-84
2022/05/17 00:05:09;;;;;;;5.23;3.93;;;16.90;99.90;;;;;;5010990;28;20434;-83
2022/05/17 00:07:38;;;;;;;5.20;4.20;;;16.80;99.90;;;;;;5010238;28;20446;-83
2022/05/17 00:10:07;;;;;;;4.87;4.40;;;16.80;99.90;;;;;;5012659;28;20445;-80
2022/05/17 00:12:35;;;;;;;6.27;3.47;;;16.80;99.90;;;;;;5011956;28;20483;-77
2022/05/17 00:15:04;;;;;;;8.80;4.70;;;16.70;99.90;;;;;;5010223;28;20497;-81
2022/05/17 00:17:32;;;;;;;5.70;3.60;;;16.70;99.90;;;;;;5005578;28;20451;-82
2022/05/17 00:20:00;;;;;;;5.70;4.30;;;16.70;99.90;;;;;;5006659;28;20447;-79
2022/05/17 00:22:28;;;;;;;5.43;4.63;;;16.60;99.90;;;;;;5006376;28;20478;-80
2022/05/17 00:24:58;;;;;;;4.50;4.10;;;16.50;99.90;;;;;;5005731;28;21061;-82
2022/05/17 00:27:25;;;;;;;5.10;4.60;;;16.50;99.90;;;;;;5008135;28;20546;-80
2022/05/17 00:29:53;;;;;;;7.33;4.23;;;16.50;99.90;;;;;;5010504;28;20465;-79
2022/05/17 00:32:21;;;;;;;10.53;4.67;;;16.50;99.90;;;;;;5010905;28;20494;-82
2022/05/17 00:34:49;;;;;;;5.07;4.53;;;16.50;99.90;;;;;;5010304;28;20454;-82
2022/05/17 00:37:17;;;;;;;8.13;6.10;;;16.40;99.90;;;;;;5015756;28;21045;-81
2022/05/17 00:39:45;;;;;;;7.30;5.20;;;16.30;99.90;;;;;;5008107;28;20945;-80
2022/05/17 00:42:14;;;;;;;5.80;4.40;;;16.20;99.90;;;;;;5004519;28;20460;-80
2022/05/17 00:44:45;;;;;;;8.63;5.00;;;16.20;99.90;;;;;;5009286;28;20501;-79
2022/05/17 00:47:17;;;;;;;7.73;4.60;;;16.30;99.90;;;;;;5003962;28;20461;-80
2022/05/17 00:49:50;;;;;;;7.67;4.80;;;16.20;99.90;;;;;;5004639;28;20434;-79
2022/05/17 00:52:21;;;;;;;6.40;4.90;;;16.20;99.90;;;;;;5004064;28;20966;-80
2022/05/17 00:54:52;;;;;;;8.87;4.87;;;16.00;99.90;;;;;;5006050;28;20474;-77
2022/05/17 00:57:27;;;;;;;9.70;5.30;;;16.00;99.90;;;;;;5010713;28;20430;-80
2022/05/17 00:59:58;;;;;;;10.30;5.70;;;15.90;99.90;;;;;;5014605;28;20509;-80
2022/05/17 01:02:27;;;;;;;6.13;4.83;;;16.00;99.90;;;;;;5018001;28;20461;-79
2022/05/17 01:04:59;;;;;;;5.37;4.70;;;15.90;99.90;;;;;;5027819;28;20449;-80
2022/05/17 01:07:39;;;;;;;10.77;5.40;;;15.90;99.90;;;;;;5039795;28;20572;-81
2022/05/17 01:10:09;;;;;;;8.40;5.30;;;15.90;99.90;;;;;;5030658;28;20476;-84
2022/05/17 01:12:40;;;;;;;6.50;5.10;;;15.90;99.90;;;;;;5031651;28;20464;-78
2022/05/17 01:15:10;;;;;;;7.10;5.37;;;15.90;99.90;;;;;;5031748;28;20457;-78
2022/05/17 01:17:40;;;;;;;8.30;5.30;;;16.00;99.90;;;;;;5031137;28;20447;-80
2022/05/17 01:20:12;;;;;;;7.30;5.40;;;15.90;99.90;;;;;;5030691;28;20449;-82
2022/05/17 01:22:41;;;;;;;9.80;5.07;;;15.80;99.90;;;;;;5026114;28;20516;-83
2022/05/17 01:25:09;;;;;;;10.60;5.47;;;15.80;99.90;;;;;;5022888;28;20445;-80
2022/05/17 01:27:42;;;;;;;6.60;4.80;;;15.80;99.90;;;;;;5026015;28;20475;-80
2022/05/17 01:30:16;;;;;;;7.20;5.63;;;15.80;99.90;;;;;;5025487;28;21031;-77
2022/05/17 01:32:44;;;;;;;4.90;4.50;;;15.70;99.90;;;;;;5025666;28;20488;-81
2022/05/17 01:35:12;;;;;;;5.37;4.83;;;15.80;99.90;;;;;;5023151;28;20564;-81
2022/05/17 01:37:42;;;;;;;8.10;5.37;;;15.90;99.90;;;;;;5024119;28;20425;-82
2022/05/17 01:40:11;;;;;;;9.40;6.60;;;15.90;99.90;;;;;;5021245;28;20479;-82
2022/05/17 01:42:39;;;;;;;6.17;4.73;;;15.80;99.90;;;;;;5014535;28;20524;-80
2022/05/17 01:45:08;;;;;;;7.50;5.50;;;15.90;99.90;;;;;;5020084;28;20502;-82
2022/05/17 01:47:36;;;;;;;8.47;6.00;;;15.90;99.90;;;;;;5006408;28;20454;-81
2022/05/17 01:50:05;;;;;;;7.67;5.20;;;15.90;99.90;;;;;;5027674;28;20576;-80
2022/05/17 01:52:34;;;;;;;6.43;5.20;;;16.00;99.90;;;;;;5034133;28;20473;-82
2022/05/17 01:55:03;;;;;;;7.90;4.97;;;15.90;99.90;;;;;;5028693;28;20473;-76
2022/05/17 01:57:31;;;;;;;8.33;6.13;;;15.90;99.90;;;;;;5026941;28;20449;-79
2022/05/17 01:59:59;;;;;;;10.17;5.37;;;15.90;99.90;;;;;;5025857;28;20457;-76
2022/05/17 02:02:27;;;;;;;5.80;5.30;;;15.70;99.90;;;;;;5025036;28;21108;-79
2022/05/17 02:04:55;;;;;;;7.40;5.37;;;15.70;99.90;;;;;;5024202;28;20437;-78
2022/05/17 02:07:23;;;;;;;6.93;5.80;;;15.80;99.90;;;;;;5021768;28;20457;-74
2022/05/17 02:09:51;;;;;;;7.23;5.40;;;15.80;99.90;;;;;;5023234;28;20433;-76
2022/05/17 02:12:20;;;;;;;6.23;5.50;;;15.80;99.90;;;;;;5044452;28;20444;-73
2022/05/17 02:14:48;;;;;;;6.73;6.13;;;15.80;99.90;;;;;;5035897;28;20507;-78
2022/05/17 02:17:16;;;;;;;7.40;5.57;;;15.80;99.90;;;;;;5021929;28;20437;-78
2022/05/17 02:19:44;;;;;;;7.13;5.30;;;15.80;99.90;;;;;;5021738;28;20449;-76
2022/05/17 02:22:12;;;;;;;8.40;5.80;;;15.80;99.90;;;;;;5023774;28;20510;-74
2022/05/17 02:24:39;;;;;;;5.33;4.90;;;15.80;99.90;;;;;;5032076;28;20437;-78
2022/05/17 02:27:07;;;;;;;9.13;5.17;;;15.70;99.90;;;;;;5033196;28;20536;-77
2022/05/17 02:29:37;;;;;;;10.27;5.27;;;15.80;99.90;;;;;;5036367;28;21246;-78
2022/05/17 02:32:05;;;;;;;9.27;6.40;;;15.80;99.90;;;;;;5024754;28;20644;-74
2022/05/17 02:34:36;;;;;;;7.73;5.97;;;15.80;99.90;;;;;;5020903;28;20945;-76
2022/05/17 02:37:04;;;;;;;7.43;6.13;;;15.80;99.90;;;;;;5019235;28;20437;-75
2022/05/17 02:39:34;;;;;;;9.10;5.20;;;15.80;99.90;;;;;;5018780;28;20472;-76
2022/05/17 02:42:02;;;;;;;9.73;6.50;;;15.80;99.90;;;;;;5019825;28;21144;-75
2022/05/17 02:44:29;;;;;;;8.33;5.90;;;15.80;99.90;;;;;;5020164;28;20966;-75
2022/05/17 02:46:59;;;;;;;6.60;6.00;;;15.80;99.90;;;;;;5021912;28;20447;-76
2022/05/17 02:49:26;;;;;;;7.10;6.07;;;15.80;99.90;;;;;;5024006;28;20457;-74
2022/05/17 02:51:55;;;;;;;9.47;6.13;;;15.80;99.90;;;;;;5023120;28;20472;-76
2022/05/17 02:54:23;;;;;;;10.60;6.30;;;15.80;99.90;;;;;;5025381;28;20719;-77
2022/05/17 02:56:51;;;;;;;9.20;6.43;;;15.80;99.90;;;;;;5025096;28;20465;-77
2022/05/17 02:59:19;;;;;;;11.00;6.60;;;15.80;99.90;;;;;;5023399;28;20543;-77
2022/05/17 03:01:48;;;;;;;15.00;6.47;;;15.80;99.90;;;;;;5024239;28;20465;-78
2022/05/17 03:04:17;;;;;;;10.27;6.40;;;15.80;99.90;;;;;;5023320;28;20523;-76
2022/05/17 03:06:46;;;;;;;7.00;5.90;;;15.80;99.90;;;;;;5023890;28;20472;-75
2022/05/17 03:09:14;;;;;;;9.20;6.10;;;15.80;99.90;;;;;;5023368;28;20460;-76
2022/05/17 03:11:43;;;;;;;6.57;5.87;;;15.80;99.90;;;;;;5022707;28;20530;-76
2022/05/17 03:14:12;;;;;;;8.03;6.77;;;15.80;99.90;;;;;;5024143;28;21053;-73
2022/05/17 03:16:40;;;;;;;9.13;6.40;;;15.80;99.90;;;;;;5021968;28;20970;-76
2022/05/17 03:19:08;;;;;;;10.30;6.60;;;15.90;99.90;;;;;;5023020;28;20444;-75
2022/05/17 03:21:38;;;;;;;6.93;6.23;;;15.90;99.90;;;;;;5024743;28;20453;-76
2022/05/17 03:24:07;;;;;;;7.10;6.40;;;15.80;99.90;;;;;;5024560;28;20451;-76
2022/05/17 03:26:54;;;;;;;9.20;6.40;;;15.70;99.90;;;;;;5022428;28;21144;-76
2022/05/17 03:29:22;;;;;;;6.50;5.70;;;15.70;99.90;;;;;;5022327;28;20433;-76
2022/05/17 03:31:50;;;;;;;10.30;5.97;;;15.70;99.90;;;;;;5013338;28;20492;-74
2022/05/17 03:34:18;;;;;;;7.23;6.53;;;15.70;99.90;;;;;;5010620;28;20472;-75
2022/05/17 03:36:47;;;;;;;8.43;6.70;;;15.80;99.90;;;;;;5011026;28;21083;-75
2022/05/17 03:39:15;;;;;;;6.57;5.70;;;15.80;99.90;;;;;;5004100;28;20434;-77
2022/05/17 03:41:43;;;;;;;7.43;6.60;;;15.80;99.90;;;;;;5005158;28;20496;-76
2022/05/17 03:44:11;;;;;;;7.80;6.20;;;15.80;99.90;;;;;;5005726;28;20461;-77
2022/05/17 03:46:39;;;;;;;7.60;6.43;;;15.80;99.90;;;;;;5004693;28;20445;-76
2022/05/17 03:49:10;;;;;;;7.33;6.60;;;15.80;99.90;;;;;;5005297;28;20438;-74
2022/05/17 03:51:38;;;;;;;7.73;6.93;;;15.90;99.90;;;;;;5001259;28;20458;-73
2022/05/17 03:54:07;;;;;;;7.53;6.80;;;15.90;99.90;;;;;;5001640;28;20442;-72
2022/05/17 03:56:35;;;;;;;7.73;6.93;;;15.90;99.90;;;;;;5001758;28;20525;-74
2022/05/17 03:59:03;;;;;;;8.37;7.47;;;15.90;99.90;;;;;;5001256;28;20941;-74
2022/05/17 04:01:31;;;;;;;7.50;6.83;;;15.90;99.90;;;;;;5002319;28;20480;-74
2022/05/17 04:03:59;;;;;;;10.53;7.40;;;15.90;99.90;;;;;;5001860;28;20482;-75
2022/05/17 04:06:27;;;;;;;8.47;6.87;;;15.90;99.90;;;;;;5002222;28;21186;-75
2022/05/17 04:08:55;;;;;;;9.83;8.00;;;15.90;99.90;;;;;;5002364;28;20442;-77
2022/05/17 04:11:24;;;;;;;8.70;7.50;;;16.00;99.90;;;;;;5002418;28;20460;-77
2022/05/17 04:13:52;;;;;;;12.37;8.50;;;15.90;99.90;;;;;;5003254;28;20456;-76
2022/05/17 04:16:19;;;;;;;12.00;8.27;;;15.90;99.90;;;;;;5004099;28;20486;-78
2022/05/17 04:18:48;;;;;;;10.07;8.20;;;15.90;99.90;;;;;;5004714;28;20442;-77
2022/05/17 04:21:16;;;;;;;10.63;8.73;;;16.00;99.90;;;;;;5002480;28;20493;-76
2022/05/17 04:23:44;;;;;;;8.70;7.70;;;15.90;99.90;;;;;;5004603;28;20430;-76
2022/05/17 04:26:13;;;;;;;8.67;7.77;;;16.00;99.90;;;;;;5003360;28;20937;-75
2022/05/17 04:28:42;;;;;;;10.07;8.90;;;16.00;99.90;;;;;;5003036;28;20440;-77
2022/05/17 04:31:10;;;;;;;11.53;9.27;;;16.10;99.90;;;;;;5005657;28;20481;-77
2022/05/17 04:33:38;;;;;;;9.47;8.37;;;16.10;99.90;;;;;;5013627;28;20449;-78
2022/05/17 04:36:07;;;;;;;10.50;8.70;;;16.10;99.90;;;;;;5011250;28;20490;-82
2022/05/17 04:38:35;;;;;;;10.33;9.07;;;16.10;99.90;;;;;;5005743;28;20975;-81
2022/05/17 04:41:02;;;;;;;10.27;8.97;;;16.10;99.90;;;;;;5007009;28;20484;-80
2022/05/17 04:43:30;;;;;;;10.00;9.10;;;16.10;99.90;;;;;;5008811;28;20445;-82
2022/05/17 04:46:00;;;;;;;11.47;10.37;;;16.10;99.90;;;;;;5019167;28;20969;-79
2022/05/17 04:48:29;;;;;;;10.43;9.17;;;16.20;99.90;;;;;;5017387;28;20443;-79
2022/05/17 04:50:56;;;;;;;10.87;9.77;;;16.20;99.90;;;;;;5013025;28;20477;-80
2022/05/17 04:53:28;;;;;;;11.27;9.20;;;16.20;99.90;;;;;;5012682;28;21084;-82
2022/05/17 04:55:56;;;;;;;15.23;10.50;;;16.20;99.90;;;;;;5010572;28;20474;-79
2022/05/17 04:58:25;;;;;;;12.37;11.00;;;16.20;99.90;;;;;;5017360;28;20424;-83
2022/05/17 05:00:54;;;;;;;12.27;10.87;;;16.30;99.90;;;;;;5041377;28;20473;-80
2022/05/17 05:03:24;;;;;;;13.20;10.30;;;16.30;99.90;;;;;;5044291;28;20488;-83
2022/05/17 05:05:52;;;;;;;11.77;10.50;;;16.40;99.90;;;;;;5038866;28;20750;-83
2022/05/17 05:08:21;;;;;;;12.20;10.60;;;16.30;99.90;;;;;;5045687;28;20459;-83
2022/05/17 05:10:55;;;;;;;10.87;9.83;;;16.40;99.90;;;;;;5049815;28;20482;-80
2022/05/17 05:13:25;;;;;;;15.90;12.17;;;16.50;99.90;;;;;;5039240;28;20523;-80
2022/05/17 05:15:54;;;;;;;11.27;10.13;;;16.50;99.90;;;;;;5026730;28;20560;-81
2022/05/17 05:18:23;;;;;;;13.50;12.10;;;16.60;99.90;;;;;;5025808;28;20445;-80
2022/05/17 05:20:51;;;;;;;13.80;10.73;;;16.60;99.90;;;;;;5030427;28;20491;-80
2022/05/17 05:23:20;;;;;;;11.73;10.20;;;16.60;99.90;;;;;;5038280;28;20446;-78
2022/05/17 05:25:47;;;;;;;11.87;10.70;;;16.60;99.90;;;;;;5034013;28;20445;-80
2022/05/17 05:28:15;;;;;;;11.63;10.40;;;16.60;99.90;;;;;;5036837;28;20448;-78
2022/05/17 05:30:43;;;;;;;14.90;11.67;;;16.60;99.90;;;;;;5038937;28;20492;-72
2022/05/17 05:33:11;;;;;;;13.80;12.07;;;16.70;99.90;;;;;;5040331;28;20453;-79
2022/05/17 05:35:41;;;;;;;14.70;13.27;;;16.70;99.90;;;;;;5033797;28;20473;-76
2022/05/17 05:38:09;;;;;;;14.10;12.63;;;16.70;99.90;;;;;;5045189;28;20438;-80
2022/05/17 05:40:37;;;;;;;13.13;11.60;;;16.80;99.90;;;;;;5034032;28;20469;-77
2022/05/17 05:43:05;;;;;;;16.90;12.00;;;16.80;99.90;;;;;;5026362;28;20449;-81
2022/05/17 05:45:33;;;;;;;14.70;12.57;;;16.80;99.90;;;;;;5026263;28;20441;-78
2022/05/17 05:48:01;;;;;;;18.40;12.93;;;16.80;99.90;;;;;;5026006;28;20445;-78
2022/05/17 05:50:29;;;;;;;13.57;12.13;;;16.80;99.90;;;;;;5033262;28;20490;-77
2022/05/17 05:53:02;;;;;;;14.50;13.00;;;16.80;99.90;;;;;;5040739;28;20941;-79
2022/05/17 05:55:30;;;;;;;19.23;14.40;;;16.70;99.90;;;;;;5034809;28;20762;-78
2022/05/17 05:57:58;;;;;;;15.43;11.60;;;16.70;99.90;;;;;;5024272;28;20610;-78
2022/05/17 06:00:30;;;;;;;16.43;14.63;;;16.70;99.90;;;;;;5022616;28;20991;-78
2022/05/17 06:02:58;;;;;;;16.47;14.10;;;16.70;99.90;;;;;;5024785;28;20456;-79
2022/05/17 06:05:27;;;;;;;14.17;12.77;;;16.70;99.90;;;;;;5035604;28;20500;-77
2022/05/17 06:07:55;;;;;;;15.80;13.20;;;16.70;99.90;;;;;;5026009;28;20438;-80
2022/05/17 06:10:24;;;;;;;13.07;11.67;;;16.70;99.90;;;;;;5025521;28;20968;-79
2022/05/17 06:12:52;;;;;;;19.50;12.67;;;16.60;99.90;;;;;;5024556;28;20457;-80
2022/05/17 06:15:20;;;;;;;16.87;14.07;;;16.60;99.90;;;;;;5021498;28;20968;-76
2022/05/17 06:17:50;;;;;;;18.53;13.50;;;16.60;99.90;;;;;;5023109;28;20585;-79
2022/05/17 06:20:18;;;;;;;18.10;13.10;;;16.60;99.90;;;;;;5024824;28;20492;-80
2022/05/17 06:22:46;;;;;;;16.50;13.10;;;16.60;99.90;;;;;;5033155;28;20535;-78
2022/05/17 06:25:14;;;;;;;13.77;12.20;;;16.60;99.90;;;;;;5040228;28;20938;-79
2022/05/17 06:27:44;;;;;;;15.83;13.90;;;16.60;99.90;;;;;;5039589;28;20487;-76
2022/05/17 06:30:13;;;;;;;13.17;11.73;;;16.60;99.90;;;;;;5039497;28;20449;-77
2022/05/17 06:32:41;;;;;;;13.03;11.50;;;16.60;99.90;;;;;;5030828;28;20440;-76
2022/05/17 06:35:10;;;;;;;15.67;12.33;;;16.60;99.90;;;;;;5027823;28;21137;-77
2022/05/17 06:37:39;;;;;;;14.53;12.97;;;16.70;99.90;;;;;;5028635;28;20487;-76
2022/05/17 06:40:08;;;;;;;14.77;13.23;;;16.70;99.90;;;;;;5029267;28;21165;-76
2022/05/17 06:42:38;;;;;;;17.03;13.60;;;16.70;99.90;;;;;;5023729;28;20454;-75
2022/05/17 06:45:09;;;;;;;17.70;13.27;;;16.70;99.90;;;;;;5037321;28;21034;-76
2022/05/17 06:47:37;;;;;;;14.17;12.77;;;16.70;99.90;;;;;;5037425;28;20486;-77
2022/05/17 06:50:06;;;;;;;20.10;12.80;;;16.70;99.90;;;;;;5023380;28;20469;-78
2022/05/17 06:52:33;;;;;;;16.80;13.00;;;16.70;99.90;;;;;;5025336;28;20457;-78
2022/05/17 06:55:01;;;;;;;13.90;11.37;;;16.70;99.90;;;;;;5027824;28;20548;-75
2022/05/17 06:57:29;;;;;;;12.37;10.70;;;16.70;99.90;;;;;;5019860;28;20535;-77
2022/05/17 06:59:58;;;;;;;11.03;9.87;;;16.70;99.90;;;;;;5020340;28;20441;-75
2022/05/17 07:02:27;;;;;;;16.23;12.07;;;16.70;99.90;;;;;;5020044;28;20442;-75
2022/05/17 07:04:55;;;;;;;13.40;10.53;;;16.80;99.90;;;;;;5023217;28;20442;-79
2022/05/17 07:07:23;;;;;;;13.70;11.33;;;16.80;99.90;;;;;;5031878;28;20442;-76
2022/05/17 07:15:19;;;;;;;12.60;10.20;;;17.00;99.90;;;;;;5018810;28;20548;-76
2022/05/17 07:17:49;;;;;;;12.80;11.20;;;17.10;99.90;;;;;;5017209;28;21217;-74
2022/05/17 07:20:23;;;;;;;9.83;8.93;;;17.20;99.90;;;;;;5017829;28;20473;-76
2022/05/17 07:22:51;;;;;;;13.67;10.73;;;17.20;99.90;;;;;;5017552;28;21090;-76
2022/05/17 07:25:19;;;;;;;12.50;10.67;;;17.30;99.90;;;;;;5018620;28;21144;-78
2022/05/17 07:27:47;;;;;;;10.73;9.63;;;17.30;99.90;;;;;;5019698;28;20477;-74
2022/05/17 07:30:15;;;;;;;14.33;11.60;;;17.30;99.90;;;;;;5019024;28;20491;-76
2022/05/17 07:32:43;;;;;;;11.03;9.93;;;17.20;99.90;;;;;;5019822;28;20433;-75
2022/05/17 07:35:13;;;;;;;10.30;9.07;;;17.20;99.90;;;;;;5022277;28;20449;-75
2022/05/17 07:37:42;;;;;;;12.67;11.27;;;17.20;99.90;;;;;;5023568;28;20518;-76
2022/05/17 07:40:12;;;;;;;14.07;12.00;;;17.20;99.90;;;;;;5023062;28;20441;-76
2022/05/17 07:42:40;;;;;;;11.63;10.53;;;17.30;99.90;;;;;;5024155;28;20515;-75
2022/05/17 07:45:10;;;;;;;11.60;10.40;;;17.30;99.90;;;;;;5021613;28;20473;-74
2022/05/17 07:47:38;;;;;;;10.13;9.17;;;17.30;99.90;;;;;;5023335;28;20448;-74
2022/05/17 07:50:07;;;;;;;9.50;8.50;;;17.30;99.90;;;;;;5021154;28;20429;-74
2022/05/17 07:52:36;;;;;;;12.20;10.93;;;17.40;99.90;;;;;;5021168;28;21150;-74
2022/05/17 07:55:06;;;;;;;8.93;8.10;;;17.60;99.90;;;;;;5021389;28;20462;-74
2022/05/17 07:57:34;;;;;;;11.30;10.20;;;17.80;99.90;;;;;;5021207;28;21137;-74
2022/05/17 08:00:05;;;;;;;11.30;10.10;;;18.00;99.90;;;;;;5020593;28;20448;-74
2022/05/17 08:02:33;;;;;;;10.67;9.70;;;18.10;99.90;;;;;;5020723;28;20451;-76
2022/05/17 08:05:01;;;;;;;11.40;9.70;;;18.30;99.90;;;;;;5021280;28;20444;-75
2022/05/17 08:07:29;;;;;;;9.50;8.70;;;18.60;99.90;;;;;;5021738;28;20470;-75
2022/05/17 08:09:59;;;;;;;9.27;8.47;;;18.70;99.90;;;;;;5020547;28;20447;-75
2022/05/17 08:12:26;;;;;;;12.17;11.07;;;18.80;99.90;;;;;;5021393;28;20444;-74
2022/05/17 08:14:54;;;;;;;14.27;12.90;;;18.80;99.90;;;;;;5020743;28;21160;-74
2022/05/17 08:17:23;;;;;;;16.03;14.20;;;18.80;99.90;;;;;;5020367;28;20583;-76
2022/05/17 08:19:51;;;;;;;13.67;12.27;;;18.70;99.90;;;;;;5020819;28;20465;-74
2022/05/17 08:22:19;;;;;;;15.90;14.30;;;18.60;99.90;;;;;;5020308;28;20471;-75
2022/05/17 08:27:36;;;;;;;17.23;14.53;;;18.50;99.90;;;;;;5021067;28;20450;-75
2022/05/17 08:30:10;;;;;;;15.13;13.53;;;18.50;99.90;;;;;;5020829;28;20965;-75
2022/05/17 08:35:36;;;;;;;13.90;12.63;;;18.40;99.90;;;;;;5023568;28;21117;-75
2022/05/17 08:38:05;;;;;;;13.07;11.87;;;18.50;99.90;;;;;;5024351;28;21187;-74
2022/05/17 08:40:39;;;;;;;15.63;14.13;;;18.60;99.90;;;;;;5031440;28;20468;-75
2022/05/17 08:43:17;;;;;;;15.00;13.50;;;18.80;99.90;;;;;;5023626;28;20447;-74
2022/05/17 08:46:00;;;;;;;16.07;14.17;;;19.00;99.90;;;;;;5022040;28;20440;-74
2022/05/17 08:48:35;;;;;;;14.50;12.97;;;19.20;99.90;;;;;;5021489;28;20455;-74
2022/05/17 08:51:04;;;;;;;14.77;13.40;;;19.20;99.90;;;;;;5019873;28;20463;-74
2022/05/17 08:53:33;;;;;;;14.73;13.23;;;19.10;99.90;;;;;;5027762;28;20490;-74
2022/05/17 08:56:01;;;;;;;15.77;14.03;;;19.20;99.90;;;;;;5030860;28;20467;-74
2022/05/17 08:58:33;;;;;;;15.00;13.50;;;19.40;99.90;;;;;;5027703;28;20475;-76
2022/05/17 09:01:06;;;;;;;15.97;14.37;;;19.40;99.90;;;;;;5030043;28;20464;-76
2022/05/17 09:03:47;;;;;;;14.33;12.73;;;19.50;99.90;;;;;;5035358;28;20455;-75
2022/05/17 09:06:21;;;;;;;15.90;14.30;;;19.50;99.90;;;;;;5040892;28;20450;-73
2022/05/17 09:08:57;;;;;;;13.50;12.40;;;19.50;99.90;;;;;;5039770;28;20442;-76
2022/05/17 09:11:31;;;;;;;13.70;12.30;;;19.60;99.90;;;;;;5031465;28;20559;-75
2022/05/17 09:14:03;;;;;;;13.20;11.90;;;19.70;99.90;;;;;;5025284;28;21080;-76
2022/05/17 09:16:40;;;;;;;16.73;14.60;;;19.70;99.90;;;;;;5023595;28;20514;-74
2022/05/17 09:19:08;;;;;;;14.60;13.10;;;19.80;99.90;;;;;;5014267;28;20459;-73
2022/05/17 09:21:38;;;;;;;12.10;10.97;;;20.00;99.90;;;;;;5021951;28;20576;-73
2022/05/17 09:24:10;;;;;;;13.80;12.07;;;20.20;99.90;;;;;;5030413;28;20446;-75
2022/05/17 09:26:39;;;;;;;13.30;12.00;;;20.20;99.90;;;;;;5025928;28;20481;-74
2022/05/17 09:29:16;;;;;;;12.90;11.60;;;20.30;99.90;;;;;;5022826;28;20487;-74
2022/05/17 09:31:51;;;;;;;11.87;10.67;;;20.30;99.90;;;;;;5035968;28;20482;-76
2022/05/17 09:34:28;;;;;;;10.37;9.37;;;20.10;99.90;;;;;;5015912;28;20537;-76
2022/05/17 09:36:57;;;;;;;9.00;8.20;;;20.10;99.90;;;;;;5031307;28;20481;-78
2022/05/17 09:39:27;;;;;;;9.90;9.10;;;20.10;99.90;;;;;;5030984;28;20506;-77
2022/05/17 09:41:57;;;;;;;9.17;8.27;;;20.30;99.90;;;;;;5030928;28;20481;-79
2022/05/17 09:44:44;;;;;;;8.23;7.53;;;20.50;99.90;;;;;;5026976;28;20556;-78
2022/05/17 09:47:26;;;;;;;9.60;8.80;;;20.80;99.90;;;;;;5041958;28;20531;-82
2022/05/17 09:52:44;;;;;;;8.53;7.83;;;21.20;99.90;;;;;;5031619;28;20484;-81
2022/05/17 09:55:22;;;;;;;6.43;5.93;;;21.30;99.90;;;;;;5031444;28;20981;-80
2022/05/17 09:57:57;;;;;;;6.60;6.00;;;21.40;99.90;;;;;;5022770;28;20558;-77
2022/05/17 10:00:32;;;;;;;7.73;7.03;;;21.50;99.90;;;;;;5028741;28;20560;-76
2022/05/17 10:03:03;;;;;;;8.53;7.93;;;21.50;99.90;;;;;;5029676;28;20444;-78
2022/05/17 10:05:45;;;;;;;8.00;7.27;;;21.40;99.90;;;;;;5029272;28;20531;-76
2022/05/17 10:08:37;;;;;;;7.10;6.60;;;21.20;99.90;;;;;;5022239;28;20453;-76
2022/05/17 10:11:16;;;;;;;7.37;6.77;;;21.00;99.90;;;;;;5033376;28;20481;-78
2022/05/17 10:13:54;;;;;;;6.33;5.93;;;20.90;99.90;;;;;;5030528;28;20452;-77
2022/05/17 10:16:30;;;;;;;5.97;5.57;;;20.80;99.90;;;;;;5028414;28;20468;-77
2022/05/17 10:19:03;;;;;;;7.13;6.70;;;20.70;99.90;;;;;;5036391;28;20640;-78
2022/05/17 10:21:38;;;;;;;5.80;5.40;;;20.60;99.90;;;;;;5027542;28;20550;-77
2022/05/17 10:24:16;;;;;;;5.13;4.73;;;20.60;99.90;;;;;;5031107;28;20846;-77
2022/05/17 10:26:49;;;;;;;5.20;4.80;;;20.60;99.90;;;;;;5032602;28;20454;-77
2022/05/17 10:29:26;;;;;;;4.70;4.40;;;20.70;99.90;;;;;;5047869;28;20444;-80
2022/05/17 10:32:01;;;;;;;5.37;5.07;;;20.90;99.90;;;;;;5049042;28;20473;-77
2022/05/17 10:34:54;;;;;;;4.23;4.03;;;21.00;99.90;;;;;;5055857;28;20421;-78
2022/05/17 10:37:27;;;;;;;4.60;4.40;;;21.10;99.90;;;;;;5053172;28;20448;-81
2022/05/17 10:39:59;;;;;;;4.43;4.20;;;21.10;99.90;;;;;;5031953;28;20482;-79
2022/05/17 10:42:28;;;;;;;5.07;4.67;;;21.10;99.90;;;;;;5031305;28;20527;-80
2022/05/17 10:44:59;;;;;;;4.20;3.90;;;21.20;99.90;;;;;;5032774;28;20445;-77
2022/05/17 10:47:47;;;;;;;3.37;3.23;;;21.20;99.90;;;;;;5028150;28;20492;-78
2022/05/17 10:50:26;;;;;;;3.53;3.30;;;21.10;99.90;;;;;;5029615;28;20469;-78
2022/05/17 10:53:18;;;;;;;4.10;3.17;;;21.10;99.90;;;;;;5028013;28;20519;-78
2022/05/17 10:55:58;;;;;;;2.80;2.70;;;21.20;99.90;;;;;;5021581;28;20477;-79
2022/05/17 10:58:35;;;;;;;2.97;2.77;;;21.40;99.90;;;;;;5029122;28;21060;-77
2022/05/17 11:01:12;;;;;;;2.47;2.33;;;21.60;99.90;;;;;;5032594;28;20473;-78
2022/05/17 11:04:25;;;;;;;2.23;2.13;;;21.70;99.90;;;;;;5033908;28;21140;-79
2022/05/17 11:07:03;;;;;;;2.90;2.80;;;21.90;99.90;;;;;;5017124;28;21334;-80
2022/05/17 11:09:41;;;;;;;2.70;2.60;;;22.10;99.90;;;;;;5036139;28;20444;-81
2022/05/17 11:12:11;;;;;;;3.40;3.20;;;22.00;99.90;;;;;;5039025;28;20475;-81
2022/05/17 11:14:45;;;;;;;2.73;2.63;;;21.90;99.90;;;;;;5042991;28;20451;-79
2022/05/17 11:17:31;;;;;;;3.10;2.90;;;21.70;99.90;;;;;;5041781;28;20464;-77
2022/05/17 11:20:09;;;;;;;2.83;2.73;;;21.50;99.90;;;;;;5032137;28;20571;-77
2022/05/17 11:22:44;;;;;;;3.83;3.07;;;21.50;99.90;;;;;;5033014;28;20534;-77
2022/05/17 11:25:40;;;;;;;3.80;3.60;;;21.50;99.90;;;;;;5027451;28;21136;-78
2022/05/17 11:28:55;;;;;;;4.13;3.93;;;21.50;99.90;;;;;;5037805;28;20449;-77
2022/05/17 11:31:53;;;;;;;4.33;4.07;;;21.40;99.90;;;;;;4997686;28;20480;-78
2022/05/17 11:34:27;;;;;;;5.10;3.30;;;21.40;99.90;;;;;;5019821;28;20441;-78
2022/05/17 11:36:58;;;;;;;4.73;4.43;;;21.30;99.90;;;;;;5026934;28;20505;-78
2022/05/17 11:39:48;;;;;;;4.10;3.80;;;21.30;99.90;;;;;;5032531;28;20524;-77
2022/05/17 11:42:29;;;;;;;5.27;4.87;;;21.20;99.90;;;;;;5041320;28;20842;-78
2022/05/17 11:45:18;;;;;;;4.20;3.90;;;21.10;99.90;;;;;;5034677;28;20464;-77
2022/05/17 11:47:56;;;;;;;4.83;4.53;;;21.10;99.90;;;;;;5034937;28;20986;-77
2022/05/17 11:50:54;;;;;;;5.10;4.67;;;21.10;99.90;;;;;;5047995;28;20479;-78
2022/05/17 11:53:46;;;;;;;3.80;3.60;;;21.00;99.90;;;;;;5041313;28;20503;-76
2022/05/17 11:56:18;;;;;;;4.70;4.50;;;21.00;99.90;;;;;;5043863;28;20470;-77
2022/05/17 11:58:48;;;;;;;4.90;4.10;;;21.00;99.90;;;;;;5035233;28;20489;-78
2022/05/17 12:01:46;;;;;;;4.20;4.00;;;20.90;99.90;;;;;;5047019;28;20457;-78
2022/05/17 12:04:42;;;;;;;4.60;4.30;;;20.80;99.90;;;;;;5026604;28;20487;-75
2022/05/17 12:07:22;;;;;;;4.30;4.00;;;20.70;99.90;;;;;;5025671;28;21127;-78
2022/05/17 12:09:53;;;;;;;3.77;3.57;;;20.70;99.90;;;;;;5026707;28;20445;-77
2022/05/17 12:12:51;;;;;;;4.63;4.40;;;20.70;99.90;;;;;;5026138;28;20429;-78
2022/05/17 12:15:31;;;;;;;3.63;3.50;;;20.80;99.90;;;;;;5024329;28;20563;-76
2022/05/17 12:18:27;;;;;;;5.13;3.47;;;20.90;99.90;;;;;;5032233;28;20440;-79
2022/05/17 12:21:15;;;;;;;3.70;3.50;;;21.10;99.90;;;;;;5041257;28;20484;-77
2022/05/17 12:23:50;;;;;;;6.20;5.30;;;21.10;99.90;;;;;;5046814;28;20623;-80
2022/05/17 12:26:26;;;;;;;5.40;4.20;;;21.00;99.90;;;;;;5045832;28;20452;-78
2022/05/17 12:28:54;;;;;;;4.60;4.30;;;20.80;99.90;;;;;;5045825;28;20503;-78
2022/05/17 12:31:25;;;;;;;4.73;4.43;;;20.70;99.90;;;;;;5047420;28;20468;-77
2022/05/17 12:33:55;;;;;;;6.30;5.80;;;20.50;99.90;;;;;;5054894;28;20448;-76
2022/05/17 12:36:26;;;;;;;5.97;5.60;;;20.40;99.90;;;;;;5060237;28;20463;-77
2022/05/17 12:44:35;;;;;;;6.33;5.93;;;20.20;99.90;;;;;;5037610;28;20433;-78
2022/05/17 12:47:03;;;;;;;6.33;5.80;;;20.20;99.90;;;;;;5048123;28;20516;-78
2022/05/17 12:49:33;;;;;;;6.20;5.70;;;20.10;99.90;;;;;;5057247;28;20503;-76
2022/05/17 12:52:12;;;;;;;6.97;6.37;;;20.00;99.90;;;;;;5061098;28;20495;-79
2022/05/17 12:54:41;;;;;;;7.30;6.60;;;20.00;99.90;;;;;;5045766;28;20500;-78
2022/05/17 12:57:24;;;;;;;6.63;6.23;;;20.00;99.90;;;;;;5044586;28;20500;-81
2022/05/17 12:59:52;;;;;;;7.10;6.10;;;19.90;99.90;;;;;;5046361;28;20478;-81
2022/05/17 13:02:23;;;;;;;6.43;6.03;;;19.90;99.90;;;;;;5045122;28;20449;-78
2022/05/17 13:04:51;;;;;;;5.70;5.33;;;19.90;99.90;;;;;;5043418;28;20527;-77
2022/05/17 13:07:22;;;;;;;5.63;5.27;;;19.90;99.90;;;;;;5043918;28;20502;-77
2022/05/17 13:09:56;;;;;;;6.27;5.90;;;20.00;99.90;;;;;;5042601;28;20474;-78
2022/05/17 13:12:28;;;;;;;9.53;6.40;;;20.20;99.90;;;;;;5042092;28;20542;-78
2022/05/17 13:14:58;;;;;;;6.93;6.33;;;20.30;99.90;;;;;;5030155;28;20445;-80
2022/05/17 13:17:32;;;;;;;6.63;6.17;;;20.40;99.90;;;;;;5023973;28;20445;-81
2022/05/17 13:20:08;;;;;;;5.80;5.47;;;20.40;99.90;;;;;;5038881;28;20560;-78
2022/05/17 13:22:41;;;;;;;5.87;5.47;;;20.50;99.90;;;;;;5030025;28;20462;-79